sensor_id;sensor_type;location;lat;lon;timestamp;P1;durP1;ratioP1;P2;durP2;ratioP2
870;SDS011;422;51.280;7.236;2023-08-01T00:00:18;2.40;;;1.77;;
870;SDS011;422;51.280;7.236;2023-08-01T00:02:45;2.87;;;1.93;;
870;SDS011;422;51.280;7.236;2023-08-01T00:05:12;2.50;;;1.53;;
870;SDS011;422;51.280;7.236;2023-08-01T00:07:40;2.70;;;2.10;;
870;SDS011;422;51.280;7.236;2023-08-01T00:10:07;3.20;;;1.93;;
870;SDS011;422;51.280;7.236;2023-08-01T00:12:35;2.47;;;1.97;;
870;SDS011;422;51.280;7.236;2023-08-01T00:15:02;3.30;;;1.93;;
870;SDS011;422;51.280;7.236;2023-08-01T00:17:30;2.60;;;1.63;;
870;SDS011;422;51.280;7.236;2023-08-01T00:19:57;2.30;;;1.73;;
870;SDS011;422;51.280;7.236;2023-08-01T00:22:24;3.20;;;2.10;;
870;SDS011;422;51.280;7.236;2023-08-01T00:24:52;2.10;;;1.60;;
870;SDS011;422;51.280;7.236;2023-08-01T00:27:19;2.77;;;2.17;;
870;SDS011;422;51.280;7.236;2023-08-01T00:29:47;2.50;;;1.90;;
870;SDS011;422;51.280;7.236;2023-08-01T00:32:14;2.30;;;1.90;;
870;SDS011;422;51.280;7.236;2023-08-01T00:34:41;2.20;;;1.80;;
870;SDS011;422;51.280;7.236;2023-08-01T00:37:08;3.70;;;2.17;;
870;SDS011;422;51.280;7.236;2023-08-01T00:39:35;2.57;;;2.07;;
870;SDS011;422;51.280;7.236;2023-08-01T00:42:03;3.60;;;2.23;;
870;SDS011;422;51.280;7.236;2023-08-01T00:44:30;4.40;;;2.70;;
870;SDS011;422;51.280;7.236;2023-08-01T00:46:59;3.70;;;2.77;;
870;SDS011;422;51.280;7.236;2023-08-01T00:49:26;7.53;;;2.83;;
870;SDS011;422;51.280;7.236;2023-08-01T00:51:54;3.87;;;3.23;;
870;SDS011;422;51.280;7.236;2023-08-01T00:54:21;4.77;;;4.27;;
870;SDS011;422;51.280;7.236;2023-08-01T00:56:48;4.37;;;3.70;;
870;SDS011;422;51.280;7.236;2023-08-01T00:59:16;5.77;;;4.40;;
870;SDS011;422;51.280;7.236;2023-08-01T01:01:43;4.83;;;3.83;;
870;SDS011;422;51.280;7.236;2023-08-01T01:04:12;4.97;;;3.50;;
870;SDS011;422;51.280;7.236;2023-08-01T01:06:40;4.03;;;3.53;;
870;SDS011;422;51.280;7.236;2023-08-01T01:09:14;3.67;;;3.27;;
870;SDS011;422;51.280;7.236;2023-08-01T01:11:42;3.77;;;3.20;;
870;SDS011;422;51.280;7.236;2023-08-01T01:14:10;3.50;;;2.80;;
870;SDS011;422;51.280;7.236;2023-08-01T01:16:37;3.73;;;2.67;;
870;SDS011;422;51.280;7.236;2023-08-01T01:19:06;3.63;;;3.33;;
870;SDS011;422;51.280;7.236;2023-08-01T01:24:46;3.50;;;2.87;;
870;SDS011;422;51.280;7.236;2023-08-01T01:27:14;2.90;;;2.60;;
870;SDS011;422;51.280;7.236;2023-08-01T01:29:43;7.40;;;3.30;;
870;SDS011;422;51.280;7.236;2023-08-01T01:32:12;2.80;;;2.40;;
870;SDS011;422;51.280;7.236;2023-08-01T01:34:40;3.40;;;2.40;;
870;SDS011;422;51.280;7.236;2023-08-01T01:37:07;2.60;;;2.07;;
870;SDS011;422;51.280;7.236;2023-08-01T01:39:35;5.17;;;1.83;;
870;SDS011;422;51.280;7.236;2023-08-01T01:42:04;2.30;;;1.53;;
870;SDS011;422;51.280;7.236;2023-08-01T01:44:32;2.50;;;1.70;;
870;SDS011;422;51.280;7.236;2023-08-01T01:46:59;1.93;;;1.17;;
870;SDS011;422;51.280;7.236;2023-08-01T01:49:27;2.43;;;1.33;;
870;SDS011;422;51.280;7.236;2023-08-01T01:51:55;2.63;;;2.00;;
870;SDS011;422;51.280;7.236;2023-08-01T01:54:22;2.10;;;1.60;;
870;SDS011;422;51.280;7.236;2023-08-01T01:56:49;2.27;;;1.60;;
870;SDS011;422;51.280;7.236;2023-08-01T01:59:17;6.97;;;1.80;;
870;SDS011;422;51.280;7.236;2023-08-01T02:01:44;2.10;;;1.70;;
870;SDS011;422;51.280;7.236;2023-08-01T02:04:11;2.40;;;1.50;;
870;SDS011;422;51.280;7.236;2023-08-01T02:06:39;2.10;;;1.70;;
870;SDS011;422;51.280;7.236;2023-08-01T02:09:06;2.30;;;1.80;;
870;SDS011;422;51.280;7.236;2023-08-01T02:11:33;1.90;;;1.30;;
870;SDS011;422;51.280;7.236;2023-08-01T02:14:00;2.10;;;1.70;;
870;SDS011;422;51.280;7.236;2023-08-01T02:16:29;3.30;;;2.07;;
870;SDS011;422;51.280;7.236;2023-08-01T02:18:56;2.73;;;2.03;;
870;SDS011;422;51.280;7.236;2023-08-01T02:21:24;3.80;;;2.50;;
870;SDS011;422;51.280;7.236;2023-08-01T02:23:51;3.57;;;2.30;;
870;SDS011;422;51.280;7.236;2023-08-01T02:26:18;4.50;;;2.70;;
870;SDS011;422;51.280;7.236;2023-08-01T02:28:47;2.90;;;2.57;;
870;SDS011;422;51.280;7.236;2023-08-01T02:31:15;3.77;;;3.17;;
870;SDS011;422;51.280;7.236;2023-08-01T02:33:43;3.60;;;2.97;;
870;SDS011;422;51.280;7.236;2023-08-01T02:36:10;3.20;;;2.77;;
870;SDS011;422;51.280;7.236;2023-08-01T02:38:37;3.50;;;3.20;;
870;SDS011;422;51.280;7.236;2023-08-01T02:41:05;3.33;;;2.80;;
870;SDS011;422;51.280;7.236;2023-08-01T02:43:32;3.00;;;2.70;;
870;SDS011;422;51.280;7.236;2023-08-01T02:46:01;3.13;;;2.70;;
870;SDS011;422;51.280;7.236;2023-08-01T02:48:28;2.70;;;2.40;;
870;SDS011;422;51.280;7.236;2023-08-01T02:50:56;2.87;;;2.00;;
870;SDS011;422;51.280;7.236;2023-08-01T02:59:37;3.03;;;2.73;;
870;SDS011;422;51.280;7.236;2023-08-01T03:02:05;3.20;;;2.80;;
870;SDS011;422;51.280;7.236;2023-08-01T03:04:32;2.90;;;2.60;;
870;SDS011;422;51.280;7.236;2023-08-01T03:07:01;3.87;;;3.20;;
870;SDS011;422;51.280;7.236;2023-08-01T03:09:28;4.47;;;4.07;;
870;SDS011;422;51.280;7.236;2023-08-01T03:11:55;3.90;;;3.60;;
870;SDS011;422;51.280;7.236;2023-08-01T03:14:22;5.30;;;4.80;;
870;SDS011;422;51.280;7.236;2023-08-01T03:16:50;5.87;;;5.33;;
870;SDS011;422;51.280;7.236;2023-08-01T03:19:17;6.70;;;6.00;;
870;SDS011;422;51.280;7.236;2023-08-01T03:21:44;5.90;;;5.40;;
870;SDS011;422;51.280;7.236;2023-08-01T03:24:13;6.80;;;5.33;;
870;SDS011;422;51.280;7.236;2023-08-01T03:26:40;6.63;;;5.97;;
870;SDS011;422;51.280;7.236;2023-08-01T03:29:07;8.90;;;6.83;;
870;SDS011;422;51.280;7.236;2023-08-01T03:31:35;7.90;;;7.10;;
870;SDS011;422;51.280;7.236;2023-08-01T03:34:02;10.13;;;7.47;;
870;SDS011;422;51.280;7.236;2023-08-01T03:36:29;9.17;;;8.27;;
870;SDS011;422;51.280;7.236;2023-08-01T03:38:57;9.33;;;8.37;;
870;SDS011;422;51.280;7.236;2023-08-01T03:41:25;9.97;;;9.00;;
870;SDS011;422;51.280;7.236;2023-08-01T03:43:52;12.10;;;9.40;;
870;SDS011;422;51.280;7.236;2023-08-01T03:46:20;10.97;;;9.70;;
870;SDS011;422;51.280;7.236;2023-08-01T03:48:47;11.07;;;9.90;;
870;SDS011;422;51.280;7.236;2023-08-01T03:51:14;12.63;;;10.67;;
870;SDS011;422;51.280;7.236;2023-08-01T03:53:43;12.40;;;11.17;;
870;SDS011;422;51.280;7.236;2023-08-01T03:56:10;13.97;;;12.57;;
870;SDS011;422;51.280;7.236;2023-08-01T03:58:39;17.30;;;12.60;;
870;SDS011;422;51.280;7.236;2023-08-01T04:01:06;13.63;;;12.20;;
870;SDS011;422;51.280;7.236;2023-08-01T04:03:33;14.77;;;13.27;;
870;SDS011;422;51.280;7.236;2023-08-01T04:06:00;17.80;;;13.13;;
870;SDS011;422;51.280;7.236;2023-08-01T04:08:28;16.77;;;14.03;;
870;SDS011;422;51.280;7.236;2023-08-01T04:10:55;18.33;;;13.07;;
870;SDS011;422;51.280;7.236;2023-08-01T04:13:22;14.67;;;12.10;;
870;SDS011;422;51.280;7.236;2023-08-01T04:15:51;14.73;;;13.20;;
870;SDS011;422;51.280;7.236;2023-08-01T04:18:18;15.60;;;13.43;;
870;SDS011;422;51.280;7.236;2023-08-01T04:20:45;18.27;;;14.00;;
870;SDS011;422;51.280;7.236;2023-08-01T04:23:12;17.07;;;13.77;;
870;SDS011;422;51.280;7.236;2023-08-01T04:25:40;15.20;;;13.67;;
870;SDS011;422;51.280;7.236;2023-08-01T04:28:08;17.53;;;14.37;;
870;SDS011;422;51.280;7.236;2023-08-01T04:30:35;17.07;;;13.10;;
870;SDS011;422;51.280;7.236;2023-08-01T04:33:05;18.07;;;14.30;;
870;SDS011;422;51.280;7.236;2023-08-01T04:35:32;20.23;;;13.60;;
870;SDS011;422;51.280;7.236;2023-08-01T04:37:58;13.83;;;12.43;;
870;SDS011;422;51.280;7.236;2023-08-01T04:40:25;20.03;;;15.27;;
870;SDS011;422;51.280;7.236;2023-08-01T04:42:52;18.77;;;13.70;;
870;SDS011;422;51.280;7.236;2023-08-01T04:45:19;16.17;;;14.00;;
870;SDS011;422;51.280;7.236;2023-08-01T04:47:46;16.80;;;14.37;;
870;SDS011;422;51.280;7.236;2023-08-01T04:50:15;16.97;;;13.30;;
870;SDS011;422;51.280;7.236;2023-08-01T04:52:42;17.20;;;15.17;;
870;SDS011;422;51.280;7.236;2023-08-01T04:55:09;18.60;;;14.93;;
870;SDS011;422;51.280;7.236;2023-08-01T04:57:36;17.80;;;14.60;;
870;SDS011;422;51.280;7.236;2023-08-01T05:00:04;15.50;;;13.10;;
870;SDS011;422;51.280;7.236;2023-08-01T05:02:31;17.80;;;14.23;;
870;SDS011;422;51.280;7.236;2023-08-01T05:04:59;18.70;;;14.70;;
870;SDS011;422;51.280;7.236;2023-08-01T05:07:27;21.40;;;14.30;;
870;SDS011;422;51.280;7.236;2023-08-01T05:09:54;19.83;;;14.00;;
870;SDS011;422;51.280;7.236;2023-08-01T05:12:21;17.30;;;15.37;;
870;SDS011;422;51.280;7.236;2023-08-01T05:14:50;19.30;;;14.33;;
870;SDS011;422;51.280;7.236;2023-08-01T05:17:17;18.20;;;14.00;;
870;SDS011;422;51.280;7.236;2023-08-01T05:19:44;19.27;;;14.53;;
870;SDS011;422;51.280;7.236;2023-08-01T05:22:11;19.57;;;15.33;;
870;SDS011;422;51.280;7.236;2023-08-01T05:24:40;20.57;;;16.50;;
870;SDS011;422;51.280;7.236;2023-08-01T05:27:07;20.67;;;16.57;;
870;SDS011;422;51.280;7.236;2023-08-01T05:29:34;21.60;;;15.97;;
870;SDS011;422;51.280;7.236;2023-08-01T05:32:02;18.83;;;15.30;;
870;SDS011;422;51.280;7.236;2023-08-01T05:34:29;19.07;;;16.27;;
870;SDS011;422;51.280;7.236;2023-08-01T05:36:56;18.43;;;16.47;;
870;SDS011;422;51.280;7.236;2023-08-01T05:39:23;21.47;;;16.20;;
870;SDS011;422;51.280;7.236;2023-08-01T05:41:52;20.00;;;17.80;;
870;SDS011;422;51.280;7.236;2023-08-01T05:44:19;19.80;;;17.20;;
870;SDS011;422;51.280;7.236;2023-08-01T05:46:47;25.63;;;18.93;;
870;SDS011;422;51.280;7.236;2023-08-01T05:49:14;24.30;;;18.23;;
870;SDS011;422;51.280;7.236;2023-08-01T05:51:41;19.90;;;16.13;;
870;SDS011;422;51.280;7.236;2023-08-01T05:54:08;20.70;;;17.03;;
870;SDS011;422;51.280;7.236;2023-08-01T05:56:35;19.07;;;16.90;;
870;SDS011;422;51.280;7.236;2023-08-01T05:59:04;23.10;;;16.90;;
870;SDS011;422;51.280;7.236;2023-08-01T06:01:31;23.43;;;17.87;;
870;SDS011;422;51.280;7.236;2023-08-01T06:03:58;23.03;;;19.27;;
870;SDS011;422;51.280;7.236;2023-08-01T06:06:25;23.63;;;17.57;;
870;SDS011;422;51.280;7.236;2023-08-01T06:08:53;21.40;;;15.80;;
870;SDS011;422;51.280;7.236;2023-08-01T06:11:21;17.53;;;15.63;;
870;SDS011;422;51.280;7.236;2023-08-01T06:13:48;17.40;;;15.50;;
870;SDS011;422;51.280;7.236;2023-08-01T06:16:17;18.97;;;16.83;;
870;SDS011;422;51.280;7.236;2023-08-01T06:18:44;19.93;;;16.70;;
870;SDS011;422;51.280;7.236;2023-08-01T06:21:11;22.07;;;16.70;;
870;SDS011;422;51.280;7.236;2023-08-01T06:23:38;24.23;;;17.10;;
870;SDS011;422;51.280;7.236;2023-08-01T06:26:06;18.93;;;15.73;;
870;SDS011;422;51.280;7.236;2023-08-01T06:28:33;21.33;;;17.10;;
870;SDS011;422;51.280;7.236;2023-08-01T06:31:00;19.67;;;15.20;;
870;SDS011;422;51.280;7.236;2023-08-01T06:33:29;18.03;;;14.50;;
870;SDS011;422;51.280;7.236;2023-08-01T06:35:56;19.47;;;15.30;;
870;SDS011;422;51.280;7.236;2023-08-01T06:38:24;18.03;;;14.20;;
870;SDS011;422;51.280;7.236;2023-08-01T06:40:51;23.90;;;14.70;;
870;SDS011;422;51.280;7.236;2023-08-01T06:43:18;21.03;;;14.30;;
870;SDS011;422;51.280;7.236;2023-08-01T06:45:45;17.00;;;13.70;;
870;SDS011;422;51.280;7.236;2023-08-01T06:48:12;18.47;;;13.33;;
870;SDS011;422;51.280;7.236;2023-08-01T06:50:41;16.37;;;14.10;;
870;SDS011;422;51.280;7.236;2023-08-01T06:53:08;15.43;;;12.90;;
870;SDS011;422;51.280;7.236;2023-08-01T06:55:36;19.33;;;12.73;;
870;SDS011;422;51.280;7.236;2023-08-01T06:58:03;16.03;;;12.80;;
870;SDS011;422;51.280;7.236;2023-08-01T07:00:31;17.03;;;12.47;;
870;SDS011;422;51.280;7.236;2023-08-01T07:02:59;14.80;;;12.33;;
870;SDS011;422;51.280;7.236;2023-08-01T07:05:26;18.80;;;13.40;;
870;SDS011;422;51.280;7.236;2023-08-01T07:07:54;19.67;;;13.27;;
870;SDS011;422;51.280;7.236;2023-08-01T07:10:23;18.43;;;13.33;;
870;SDS011;422;51.280;7.236;2023-08-01T07:12:50;15.97;;;12.10;;
870;SDS011;422;51.280;7.236;2023-08-01T07:15:17;17.37;;;11.50;;
870;SDS011;422;51.280;7.236;2023-08-01T07:17:45;16.53;;;11.13;;
870;SDS011;422;51.280;7.236;2023-08-01T07:20:12;12.97;;;11.40;;
870;SDS011;422;51.280;7.236;2023-08-01T07:22:39;14.90;;;11.17;;
870;SDS011;422;51.280;7.236;2023-08-01T07:25:09;13.57;;;10.00;;
870;SDS011;422;51.280;7.236;2023-08-01T07:27:36;13.10;;;10.10;;
870;SDS011;422;51.280;7.236;2023-08-01T07:30:04;11.83;;;9.67;;
870;SDS011;422;51.280;7.236;2023-08-01T07:32:32;14.10;;;9.80;;
870;SDS011;422;51.280;7.236;2023-08-01T07:35:00;13.87;;;10.50;;
870;SDS011;422;51.280;7.236;2023-08-01T07:37:27;14.67;;;10.33;;
870;SDS011;422;51.280;7.236;2023-08-01T07:39:54;13.83;;;10.30;;
870;SDS011;422;51.280;7.236;2023-08-01T07:42:23;10.27;;;9.03;;
870;SDS011;422;51.280;7.236;2023-08-01T07:44:50;17.70;;;10.83;;
870;SDS011;422;51.280;7.236;2023-08-01T07:47:17;13.43;;;10.63;;
870;SDS011;422;51.280;7.236;2023-08-01T07:49:45;13.77;;;9.60;;
870;SDS011;422;51.280;7.236;2023-08-01T07:52:12;14.00;;;9.80;;
870;SDS011;422;51.280;7.236;2023-08-01T07:54:39;10.70;;;8.70;;
870;SDS011;422;51.280;7.236;2023-08-01T07:57:06;11.03;;;9.93;;
870;SDS011;422;51.280;7.236;2023-08-01T07:59:35;13.90;;;9.73;;
870;SDS011;422;51.280;7.236;2023-08-01T08:02:03;12.83;;;9.20;;
870;SDS011;422;51.280;7.236;2023-08-01T08:04:30;14.93;;;10.57;;
870;SDS011;422;51.280;7.236;2023-08-01T08:06:58;18.20;;;10.37;;
870;SDS011;422;51.280;7.236;2023-08-01T08:09:26;10.97;;;9.63;;
870;SDS011;422;51.280;7.236;2023-08-01T08:11:53;11.57;;;9.40;;
870;SDS011;422;51.280;7.236;2023-08-01T08:14:22;12.03;;;9.37;;
870;SDS011;422;51.280;7.236;2023-08-01T08:16:51;14.07;;;9.70;;
870;SDS011;422;51.280;7.236;2023-08-01T08:19:19;15.53;;;10.00;;
870;SDS011;422;51.280;7.236;2023-08-01T08:21:46;13.17;;;9.33;;
870;SDS011;422;51.280;7.236;2023-08-01T08:24:16;11.67;;;9.50;;
870;SDS011;422;51.280;7.236;2023-08-01T08:26:43;11.90;;;10.03;;
870;SDS011;422;51.280;7.236;2023-08-01T08:29:11;14.17;;;9.90;;
870;SDS011;422;51.280;7.236;2023-08-01T08:31:38;13.80;;;10.97;;
870;SDS011;422;51.280;7.236;2023-08-01T08:34:07;14.87;;;11.00;;
870;SDS011;422;51.280;7.236;2023-08-01T08:36:34;14.43;;;9.60;;
870;SDS011;422;51.280;7.236;2023-08-01T08:39:02;12.47;;;9.60;;
870;SDS011;422;51.280;7.236;2023-08-01T08:41:30;11.63;;;9.27;;
870;SDS011;422;51.280;7.236;2023-08-01T08:44:04;13.53;;;8.83;;
870;SDS011;422;51.280;7.236;2023-08-01T08:46:37;11.30;;;7.87;;
870;SDS011;422;51.280;7.236;2023-08-01T08:49:10;14.43;;;8.93;;
870;SDS011;422;51.280;7.236;2023-08-01T08:51:40;13.40;;;8.10;;
870;SDS011;422;51.280;7.236;2023-08-01T08:54:10;11.47;;;9.07;;
870;SDS011;422;51.280;7.236;2023-08-01T08:56:38;15.00;;;9.10;;
870;SDS011;422;51.280;7.236;2023-08-01T08:59:06;9.53;;;7.47;;
870;SDS011;422;51.280;7.236;2023-08-01T09:01:35;10.47;;;7.60;;
870;SDS011;422;51.280;7.236;2023-08-01T09:04:03;7.77;;;6.50;;
870;SDS011;422;51.280;7.236;2023-08-01T09:06:32;12.17;;;8.70;;
870;SDS011;422;51.280;7.236;2023-08-01T09:09:05;9.97;;;8.03;;
870;SDS011;422;51.280;7.236;2023-08-01T09:11:41;12.50;;;8.20;;
870;SDS011;422;51.280;7.236;2023-08-01T09:14:11;12.70;;;7.27;;
870;SDS011;422;51.280;7.236;2023-08-01T09:16:39;11.53;;;7.77;;
870;SDS011;422;51.280;7.236;2023-08-01T09:19:07;7.40;;;6.70;;
870;SDS011;422;51.280;7.236;2023-08-01T09:21:38;12.10;;;6.63;;
870;SDS011;422;51.280;7.236;2023-08-01T09:24:08;9.23;;;6.60;;
870;SDS011;422;51.280;7.236;2023-08-01T09:26:36;10.63;;;8.63;;
870;SDS011;422;51.280;7.236;2023-08-01T09:29:04;9.03;;;6.90;;
870;SDS011;422;51.280;7.236;2023-08-01T09:31:33;11.13;;;7.30;;
870;SDS011;422;51.280;7.236;2023-08-01T09:34:02;13.40;;;7.10;;
870;SDS011;422;51.280;7.236;2023-08-01T09:36:30;13.83;;;7.40;;
870;SDS011;422;51.280;7.236;2023-08-01T09:39:00;9.23;;;6.47;;
870;SDS011;422;51.280;7.236;2023-08-01T09:41:28;9.00;;;6.87;;
870;SDS011;422;51.280;7.236;2023-08-01T09:43:56;10.37;;;6.33;;
870;SDS011;422;51.280;7.236;2023-08-01T09:46:24;12.10;;;7.43;;
870;SDS011;422;51.280;7.236;2023-08-01T09:48:51;7.93;;;5.73;;
870;SDS011;422;51.280;7.236;2023-08-01T09:51:19;11.53;;;7.03;;
870;SDS011;422;51.280;7.236;2023-08-01T09:53:47;9.43;;;6.80;;
870;SDS011;422;51.280;7.236;2023-08-01T09:56:17;8.10;;;5.53;;
870;SDS011;422;51.280;7.236;2023-08-01T09:58:47;8.63;;;5.80;;
870;SDS011;422;51.280;7.236;2023-08-01T10:01:15;8.60;;;5.50;;
870;SDS011;422;51.280;7.236;2023-08-01T10:03:44;7.50;;;6.17;;
870;SDS011;422;51.280;7.236;2023-08-01T10:06:14;11.37;;;5.60;;
870;SDS011;422;51.280;7.236;2023-08-01T10:08:45;11.20;;;6.43;;
870;SDS011;422;51.280;7.236;2023-08-01T10:11:14;10.93;;;6.73;;
870;SDS011;422;51.280;7.236;2023-08-01T10:13:45;6.57;;;5.90;;
870;SDS011;422;51.280;7.236;2023-08-01T10:16:13;10.47;;;7.00;;
870;SDS011;422;51.280;7.236;2023-08-01T10:18:41;11.43;;;6.30;;
870;SDS011;422;51.280;7.236;2023-08-01T10:21:09;10.13;;;6.50;;
870;SDS011;422;51.280;7.236;2023-08-01T10:23:40;7.73;;;5.80;;
870;SDS011;422;51.280;7.236;2023-08-01T10:26:09;7.37;;;5.90;;
870;SDS011;422;51.280;7.236;2023-08-01T10:28:38;7.13;;;5.47;;
870;SDS011;422;51.280;7.236;2023-08-01T10:31:08;6.60;;;5.90;;
870;SDS011;422;51.280;7.236;2023-08-01T10:33:36;10.13;;;6.00;;
870;SDS011;422;51.280;7.236;2023-08-01T10:36:14;9.60;;;6.50;;
870;SDS011;422;51.280;7.236;2023-08-01T10:38:46;7.43;;;6.30;;
870;SDS011;422;51.280;7.236;2023-08-01T10:41:18;6.80;;;5.47;;
870;SDS011;422;51.280;7.236;2023-08-01T10:43:46;8.20;;;6.50;;
870;SDS011;422;51.280;7.236;2023-08-01T10:46:15;10.93;;;6.73;;
870;SDS011;422;51.280;7.236;2023-08-01T10:48:51;6.70;;;5.30;;
870;SDS011;422;51.280;7.236;2023-08-01T10:51:19;10.60;;;6.67;;
870;SDS011;422;51.280;7.236;2023-08-01T10:53:46;6.80;;;5.80;;
870;SDS011;422;51.280;7.236;2023-08-01T10:56:17;10.13;;;6.20;;
870;SDS011;422;51.280;7.236;2023-08-01T10:58:44;7.73;;;5.40;;
870;SDS011;422;51.280;7.236;2023-08-01T11:01:12;8.47;;;6.13;;
870;SDS011;422;51.280;7.236;2023-08-01T11:03:41;8.17;;;5.00;;
870;SDS011;422;51.280;7.236;2023-08-01T11:06:09;7.80;;;5.70;;
870;SDS011;422;51.280;7.236;2023-08-01T11:08:37;8.40;;;5.30;;
870;SDS011;422;51.280;7.236;2023-08-01T11:11:05;7.03;;;5.10;;
870;SDS011;422;51.280;7.236;2023-08-01T11:13:33;8.20;;;5.93;;
870;SDS011;422;51.280;7.236;2023-08-01T11:16:02;6.87;;;5.30;;
870;SDS011;422;51.280;7.236;2023-08-01T11:18:39;7.20;;;5.10;;
870;SDS011;422;51.280;7.236;2023-08-01T11:21:07;6.60;;;6.00;;
870;SDS011;422;51.280;7.236;2023-08-01T11:23:34;8.20;;;6.23;;
870;SDS011;422;51.280;7.236;2023-08-01T11:26:06;9.67;;;6.77;;
870;SDS011;422;51.280;7.236;2023-08-01T11:28:35;12.17;;;6.40;;
870;SDS011;422;51.280;7.236;2023-08-01T11:31:09;8.50;;;6.27;;
870;SDS011;422;51.280;7.236;2023-08-01T11:33:38;12.17;;;7.47;;
870;SDS011;422;51.280;7.236;2023-08-01T11:36:06;11.60;;;6.30;;
870;SDS011;422;51.280;7.236;2023-08-01T11:38:34;7.60;;;6.40;;
870;SDS011;422;51.280;7.236;2023-08-01T11:41:03;7.63;;;6.10;;
870;SDS011;422;51.280;7.236;2023-08-01T11:43:37;6.33;;;5.63;;
870;SDS011;422;51.280;7.236;2023-08-01T11:46:05;5.40;;;4.90;;
870;SDS011;422;51.280;7.236;2023-08-01T11:48:32;6.93;;;5.53;;
870;SDS011;422;51.280;7.236;2023-08-01T11:51:01;8.10;;;5.80;;
870;SDS011;422;51.280;7.236;2023-08-01T11:53:29;6.67;;;4.93;;
870;SDS011;422;51.280;7.236;2023-08-01T11:56:03;6.97;;;5.10;;
870;SDS011;422;51.280;7.236;2023-08-01T11:58:31;6.93;;;5.10;;
870;SDS011;422;51.280;7.236;2023-08-01T12:01:03;6.00;;;4.37;;
870;SDS011;422;51.280;7.236;2023-08-01T12:03:31;8.57;;;5.80;;
870;SDS011;422;51.280;7.236;2023-08-01T12:06:04;7.07;;;4.73;;
870;SDS011;422;51.280;7.236;2023-08-01T12:08:33;4.57;;;3.73;;
870;SDS011;422;51.280;7.236;2023-08-01T12:11:00;7.80;;;3.97;;
870;SDS011;422;51.280;7.236;2023-08-01T12:13:27;5.03;;;3.30;;
870;SDS011;422;51.280;7.236;2023-08-01T12:15:56;6.00;;;2.93;;
870;SDS011;422;51.280;7.236;2023-08-01T12:18:24;3.83;;;3.30;;
870;SDS011;422;51.280;7.236;2023-08-01T12:20:52;4.70;;;3.30;;
870;SDS011;422;51.280;7.236;2023-08-01T12:23:21;4.37;;;2.80;;
870;SDS011;422;51.280;7.236;2023-08-01T12:25:48;6.10;;;3.30;;
870;SDS011;422;51.280;7.236;2023-08-01T12:28:15;4.70;;;3.07;;
870;SDS011;422;51.280;7.236;2023-08-01T12:30:43;6.33;;;2.97;;
870;SDS011;422;51.280;7.236;2023-08-01T12:33:10;4.70;;;3.10;;
870;SDS011;422;51.280;7.236;2023-08-01T12:35:38;6.57;;;3.40;;
870;SDS011;422;51.280;7.236;2023-08-01T12:38:06;5.40;;;3.23;;
870;SDS011;422;51.280;7.236;2023-08-01T12:40:35;3.97;;;2.87;;
870;SDS011;422;51.280;7.236;2023-08-01T12:43:02;5.07;;;3.60;;
870;SDS011;422;51.280;7.236;2023-08-01T12:45:30;4.90;;;3.07;;
870;SDS011;422;51.280;7.236;2023-08-01T12:47:58;3.97;;;3.57;;
870;SDS011;422;51.280;7.236;2023-08-01T12:50:25;6.60;;;2.90;;
870;SDS011;422;51.280;7.236;2023-08-01T12:52:52;4.13;;;3.13;;
870;SDS011;422;51.280;7.236;2023-08-01T12:55:20;5.37;;;3.10;;
870;SDS011;422;51.280;7.236;2023-08-01T12:57:49;7.80;;;3.17;;
870;SDS011;422;51.280;7.236;2023-08-01T13:00:16;4.63;;;3.63;;
870;SDS011;422;51.280;7.236;2023-08-01T13:02:44;4.10;;;3.53;;
870;SDS011;422;51.280;7.236;2023-08-01T13:05:12;4.37;;;3.33;;
870;SDS011;422;51.280;7.236;2023-08-01T13:07:39;4.30;;;3.00;;
870;SDS011;422;51.280;7.236;2023-08-01T13:10:07;5.17;;;3.17;;
870;SDS011;422;51.280;7.236;2023-08-01T13:12:34;4.77;;;3.50;;
870;SDS011;422;51.280;7.236;2023-08-01T13:15:05;4.53;;;3.70;;
870;SDS011;422;51.280;7.236;2023-08-01T13:17:33;4.37;;;3.40;;
870;SDS011;422;51.280;7.236;2023-08-01T13:20:01;5.20;;;3.60;;
870;SDS011;422;51.280;7.236;2023-08-01T13:22:29;4.83;;;3.80;;
870;SDS011;422;51.280;7.236;2023-08-01T13:24:56;5.87;;;3.97;;
870;SDS011;422;51.280;7.236;2023-08-01T13:27:24;7.67;;;4.17;;
870;SDS011;422;51.280;7.236;2023-08-01T13:29:51;6.30;;;3.70;;
870;SDS011;422;51.280;7.236;2023-08-01T13:32:20;6.07;;;3.97;;
870;SDS011;422;51.280;7.236;2023-08-01T13:34:48;8.03;;;4.33;;
870;SDS011;422;51.280;7.236;2023-08-01T13:37:16;7.03;;;3.80;;
870;SDS011;422;51.280;7.236;2023-08-01T13:39:43;5.50;;;3.60;;
870;SDS011;422;51.280;7.236;2023-08-01T13:42:11;5.67;;;3.23;;
870;SDS011;422;51.280;7.236;2023-08-01T13:44:40;5.50;;;3.53;;
870;SDS011;422;51.280;7.236;2023-08-01T13:47:08;6.17;;;3.33;;
870;SDS011;422;51.280;7.236;2023-08-01T13:49:37;10.07;;;3.97;;
870;SDS011;422;51.280;7.236;2023-08-01T13:52:04;5.47;;;3.80;;
870;SDS011;422;51.280;7.236;2023-08-01T13:54:32;5.83;;;4.00;;
870;SDS011;422;51.280;7.236;2023-08-01T13:56:59;5.37;;;4.37;;
870;SDS011;422;51.280;7.236;2023-08-01T13:59:27;5.80;;;4.13;;
870;SDS011;422;51.280;7.236;2023-08-01T14:01:54;6.00;;;3.90;;
870;SDS011;422;51.280;7.236;2023-08-01T14:04:23;6.87;;;3.93;;
870;SDS011;422;51.280;7.236;2023-08-01T14:06:51;6.37;;;3.83;;
870;SDS011;422;51.280;7.236;2023-08-01T14:09:19;6.57;;;4.13;;
870;SDS011;422;51.280;7.236;2023-08-01T14:11:46;5.83;;;4.50;;
870;SDS011;422;51.280;7.236;2023-08-01T14:14:13;6.70;;;4.40;;
870;SDS011;422;51.280;7.236;2023-08-01T14:16:40;5.53;;;4.00;;
870;SDS011;422;51.280;7.236;2023-08-01T14:19:08;9.00;;;4.90;;
870;SDS011;422;51.280;7.236;2023-08-01T14:21:35;10.87;;;4.90;;
870;SDS011;422;51.280;7.236;2023-08-01T14:24:04;5.97;;;4.47;;
870;SDS011;422;51.280;7.236;2023-08-01T14:26:31;8.70;;;4.67;;
870;SDS011;422;51.280;7.236;2023-08-01T14:28:59;6.17;;;4.50;;
870;SDS011;422;51.280;7.236;2023-08-01T14:31:26;5.17;;;4.43;;
870;SDS011;422;51.280;7.236;2023-08-01T14:33:53;8.00;;;4.60;;
870;SDS011;422;51.280;7.236;2023-08-01T14:36:20;6.67;;;4.60;;
870;SDS011;422;51.280;7.236;2023-08-01T14:38:48;4.93;;;4.23;;
870;SDS011;422;51.280;7.236;2023-08-01T14:41:21;6.20;;;3.53;;
870;SDS011;422;51.280;7.236;2023-08-01T14:43:48;6.73;;;4.37;;
870;SDS011;422;51.280;7.236;2023-08-01T14:46:15;10.40;;;3.60;;
870;SDS011;422;51.280;7.236;2023-08-01T14:48:43;7.00;;;4.00;;
870;SDS011;422;51.280;7.236;2023-08-01T14:51:11;4.73;;;3.33;;
870;SDS011;422;51.280;7.236;2023-08-01T14:53:38;4.40;;;3.20;;
870;SDS011;422;51.280;7.236;2023-08-01T14:56:06;11.57;;;3.20;;
870;SDS011;422;51.280;7.236;2023-08-01T14:58:35;4.20;;;2.70;;
870;SDS011;422;51.280;7.236;2023-08-01T15:01:04;4.53;;;3.03;;
870;SDS011;422;51.280;7.236;2023-08-01T15:03:32;6.27;;;3.23;;
870;SDS011;422;51.280;7.236;2023-08-01T15:06:04;5.57;;;3.93;;
870;SDS011;422;51.280;7.236;2023-08-01T15:08:33;5.00;;;3.63;;
870;SDS011;422;51.280;7.236;2023-08-01T15:11:02;5.63;;;3.80;;
870;SDS011;422;51.280;7.236;2023-08-01T15:13:31;5.43;;;3.60;;
870;SDS011;422;51.280;7.236;2023-08-01T15:16:00;7.03;;;3.50;;
870;SDS011;422;51.280;7.236;2023-08-01T15:18:28;5.13;;;3.30;;
870;SDS011;422;51.280;7.236;2023-08-01T15:20:55;5.67;;;3.80;;
870;SDS011;422;51.280;7.236;2023-08-01T15:23:23;6.17;;;3.93;;
870;SDS011;422;51.280;7.236;2023-08-01T15:25:54;6.13;;;3.50;;
870;SDS011;422;51.280;7.236;2023-08-01T15:28:22;5.40;;;3.50;;
870;SDS011;422;51.280;7.236;2023-08-01T15:30:50;7.00;;;3.20;;
870;SDS011;422;51.280;7.236;2023-08-01T15:33:29;5.47;;;3.67;;
870;SDS011;422;51.280;7.236;2023-08-01T15:35:59;4.87;;;3.17;;
870;SDS011;422;51.280;7.236;2023-08-01T15:38:27;8.33;;;3.47;;
870;SDS011;422;51.280;7.236;2023-08-01T15:40:57;4.90;;;3.40;;
870;SDS011;422;51.280;7.236;2023-08-01T15:43:28;7.23;;;3.70;;
870;SDS011;422;51.280;7.236;2023-08-01T15:45:56;5.33;;;4.17;;
870;SDS011;422;51.280;7.236;2023-08-01T15:48:25;7.97;;;3.90;;